sensor_id;sensor_type;location;lat;lon;timestamp;P1;durP1;ratioP1;P2;durP2;ratioP2
32838;SDS011;19182;41.820;12.808;2024-03-23T00:52:25;5.55;;;3.22;;
32838;SDS011;19182;41.820;12.808;2024-03-23T00:54:51;4.78;;;2.90;;
32838;SDS011;19182;41.820;12.808;2024-03-23T00:57:17;3.80;;;2.67;;
32838;SDS011;19182;41.820;12.808;2024-03-23T00:59:44;6.35;;;3.03;;
32838;SDS011;19182;41.820;12.808;2024-03-23T01:02:10;11.50;;;4.70;;
32838;SDS011;19182;41.820;12.808;2024-03-23T01:04:36;9.63;;;5.07;;
32838;SDS011;19182;41.820;12.808;2024-03-23T01:07:03;7.25;;;3.70;;
32838;SDS011;19182;41.820;12.808;2024-03-23T01:09:29;5.63;;;3.40;;
32838;SDS011;19182;41.820;12.808;2024-03-23T01:11:55;8.43;;;3.30;;
32838;SDS011;19182;41.820;12.808;2024-03-23T01:14:21;4.75;;;2.63;;
32838;SDS011;19182;41.820;12.808;2024-03-23T01:16:47;7.63;;;2.63;;
32838;SDS011;19182;41.820;12.808;2024-03-23T01:19:13;5.82;;;3.20;;
32838;SDS011;19182;41.820;12.808;2024-03-23T01:21:39;7.43;;;3.15;;
32838;SDS011;19182;41.820;12.808;2024-03-23T01:24:05;4.35;;;2.95;;
32838;SDS011;19182;41.820;12.808;2024-03-23T01:26:31;3.05;;;2.60;;
32838;SDS011;19182;41.820;12.808;2024-03-23T01:28:57;8.52;;;2.92;;
32838;SDS011;19182;41.820;12.808;2024-03-23T01:31:24;4.93;;;2.60;;
32838;SDS011;19182;41.820;12.808;2024-03-23T01:33:49;4.55;;;2.40;;
32838;SDS011;19182;41.820;12.808;2024-03-23T01:36:15;3.28;;;2.70;;
32838;SDS011;19182;41.820;12.808;2024-03-23T01:38:42;3.35;;;2.30;;
32838;SDS011;19182;41.820;12.808;2024-03-23T01:41:08;6.32;;;2.80;;
32838;SDS011;19182;41.820;12.808;2024-03-23T01:43:34;6.82;;;3.20;;
32838;SDS011;19182;41.820;12.808;2024-03-23T01:46:01;9.13;;;3.42;;
32838;SDS011;19182;41.820;12.808;2024-03-23T01:48:27;6.00;;;2.90;;
32838;SDS011;19182;41.820;12.808;2024-03-23T01:50:52;5.55;;;2.38;;
32838;SDS011;19182;41.820;12.808;2024-03-23T01:53:20;6.63;;;3.25;;
32838;SDS011;19182;41.820;12.808;2024-03-23T01:55:48;6.80;;;2.70;;
32838;SDS011;19182;41.820;12.808;2024-03-23T01:58:16;4.90;;;3.00;;
32838;SDS011;19182;41.820;12.808;2024-03-23T02:00:42;5.18;;;2.72;;
32838;SDS011;19182;41.820;12.808;2024-03-23T02:03:41;4.30;;;2.58;;
32838;SDS011;19182;41.820;12.808;2024-03-23T02:06:00;7.13;;;3.10;;
32838;SDS011;19182;41.820;12.808;2024-03-23T02:08:26;4.68;;;2.80;;
32838;SDS011;19182;41.820;12.808;2024-03-23T02:10:51;4.88;;;2.60;;
32838;SDS011;19182;41.820;12.808;2024-03-23T02:13:18;5.32;;;2.95;;
32838;SDS011;19182;41.820;12.808;2024-03-23T02:15:44;8.13;;;3.50;;
32838;SDS011;19182;41.820;12.808;2024-03-23T02:18:10;6.72;;;3.45;;
32838;SDS011;19182;41.820;12.808;2024-03-23T02:20:36;11.60;;;4.28;;
32838;SDS011;19182;41.820;12.808;2024-03-23T02:23:03;8.27;;;2.63;;
32838;SDS011;19182;41.820;12.808;2024-03-23T02:25:31;8.82;;;3.60;;
32838;SDS011;19182;41.820;12.808;2024-03-23T02:27:57;4.15;;;3.00;;
32838;SDS011;19182;41.820;12.808;2024-03-23T02:30:24;7.07;;;3.20;;
32838;SDS011;19182;41.820;12.808;2024-03-23T02:32:51;6.15;;;3.22;;
32838;SDS011;19182;41.820;12.808;2024-03-23T02:35:17;5.78;;;3.35;;
32838;SDS011;19182;41.820;12.808;2024-03-23T02:37:43;5.53;;;2.83;;
32838;SDS011;19182;41.820;12.808;2024-03-23T02:40:09;7.68;;;2.83;;
32838;SDS011;19182;41.820;12.808;2024-03-23T02:42:35;4.32;;;2.90;;
32838;SDS011;19182;41.820;12.808;2024-03-23T02:45:02;4.30;;;2.78;;
32838;SDS011;19182;41.820;12.808;2024-03-23T02:47:30;5.47;;;2.88;;
32838;SDS011;19182;41.820;12.808;2024-03-23T02:49:56;6.43;;;2.92;;
32838;SDS011;19182;41.820;12.808;2024-03-23T02:52:21;5.57;;;2.72;;
32838;SDS011;19182;41.820;12.808;2024-03-23T02:54:47;4.70;;;2.78;;
32838;SDS011;19182;41.820;12.808;2024-03-23T02:57:14;2.97;;;2.22;;
32838;SDS011;19182;41.820;12.808;2024-03-23T02:59:40;3.33;;;2.10;;
32838;SDS011;19182;41.820;12.808;2024-03-23T03:02:07;4.43;;;2.50;;
32838;SDS011;19182;41.820;12.808;2024-03-23T03:04:33;7.60;;;2.70;;
32838;SDS011;19182;41.820;12.808;2024-03-23T03:06:59;4.53;;;2.53;;
32838;SDS011;19182;41.820;12.808;2024-03-23T03:09:25;6.32;;;2.90;;
32838;SDS011;19182;41.820;12.808;2024-03-23T03:11:51;5.05;;;3.00;;
32838;SDS011;19182;41.820;12.808;2024-03-23T03:14:17;4.97;;;3.00;;
32838;SDS011;19182;41.820;12.808;2024-03-23T03:16:43;6.00;;;3.42;;
32838;SDS011;19182;41.820;12.808;2024-03-23T03:19:09;3.47;;;3.17;;
32838;SDS011;19182;41.820;12.808;2024-03-23T03:21:36;5.85;;;3.40;;
32838;SDS011;19182;41.820;12.808;2024-03-23T03:24:02;4.88;;;3.08;;
32838;SDS011;19182;41.820;12.808;2024-03-23T03:26:28;5.28;;;3.28;;
32838;SDS011;19182;41.820;12.808;2024-03-23T03:28:55;4.00;;;2.70;;
32838;SDS011;19182;41.820;12.808;2024-03-23T03:31:21;4.47;;;2.90;;
32838;SDS011;19182;41.820;12.808;2024-03-23T03:33:47;3.60;;;2.60;;
32838;SDS011;19182;41.820;12.808;2024-03-23T03:36:15;3.47;;;3.05;;
32838;SDS011;19182;41.820;12.808;2024-03-23T03:38:41;5.28;;;2.80;;
32838;SDS011;19182;41.820;12.808;2024-03-23T03:41:07;4.10;;;2.60;;
32838;SDS011;19182;41.820;12.808;2024-03-23T03:43:34;4.43;;;2.72;;
32838;SDS011;19182;41.820;12.808;2024-03-23T03:46:00;6.82;;;3.10;;
32838;SDS011;19182;41.820;12.808;2024-03-23T03:48:26;7.18;;;3.60;;
32838;SDS011;19182;41.820;12.808;2024-03-23T03:50:53;7.53;;;3.70;;
32838;SDS011;19182;41.820;12.808;2024-03-23T03:53:28;4.78;;;3.13;;
32838;SDS011;19182;41.820;12.808;2024-03-23T03:55:55;8.07;;;3.08;;
32838;SDS011;19182;41.820;12.808;2024-03-23T03:58:21;5.05;;;3.35;;
32838;SDS011;19182;41.820;12.808;2024-03-23T04:00:47;9.55;;;3.60;;
32838;SDS011;19182;41.820;12.808;2024-03-23T04:03:13;5.20;;;3.00;;
32838;SDS011;19182;41.820;12.808;2024-03-23T04:05:39;7.45;;;3.00;;
32838;SDS011;19182;41.820;12.808;2024-03-23T04:08:05;8.00;;;3.13;;
32838;SDS011;19182;41.820;12.808;2024-03-23T04:10:32;4.38;;;3.00;;
32838;SDS011;19182;41.820;12.808;2024-03-23T04:12:58;4.75;;;2.97;;
32838;SDS011;19182;41.820;12.808;2024-03-23T04:15:24;6.78;;;3.42;;
32838;SDS011;19182;41.820;12.808;2024-03-23T04:17:50;6.25;;;2.90;;
32838;SDS011;19182;41.820;12.808;2024-03-23T04:20:16;3.55;;;2.67;;
32838;SDS011;19182;41.820;12.808;2024-03-23T04:22:43;4.72;;;3.03;;
32838;SDS011;19182;41.820;12.808;2024-03-23T04:25:09;4.88;;;3.00;;
32838;SDS011;19182;41.820;12.808;2024-03-23T04:27:36;3.28;;;2.97;;
32838;SDS011;19182;41.820;12.808;2024-03-23T04:30:04;8.70;;;3.10;;
32838;SDS011;19182;41.820;12.808;2024-03-23T04:32:35;4.28;;;2.88;;
32838;SDS011;19182;41.820;12.808;2024-03-23T04:35:05;3.60;;;2.70;;
32838;SDS011;19182;41.820;12.808;2024-03-23T04:37:31;4.22;;;2.75;;
32838;SDS011;19182;41.820;12.808;2024-03-23T04:39:59;5.05;;;2.50;;
32838;SDS011;19182;41.820;12.808;2024-03-23T04:42:27;3.40;;;2.50;;
32838;SDS011;19182;41.820;12.808;2024-03-23T04:44:53;5.43;;;2.80;;
32838;SDS011;19182;41.820;12.808;2024-03-23T04:47:19;5.32;;;2.45;;
32838;SDS011;19182;41.820;12.808;2024-03-23T04:49:46;3.78;;;2.88;;
32838;SDS011;19182;41.820;12.808;2024-03-23T04:52:12;4.28;;;2.60;;
32838;SDS011;19182;41.820;12.808;2024-03-23T04:54:38;3.83;;;2.45;;
32838;SDS011;19182;41.820;12.808;2024-03-23T04:57:07;4.78;;;2.80;;
32838;SDS011;19182;41.820;12.808;2024-03-23T04:59:33;6.95;;;2.90;;
32838;SDS011;19182;41.820;12.808;2024-03-23T05:01:59;5.45;;;3.10;;
32838;SDS011;19182;41.820;12.808;2024-03-23T05:04:26;2.92;;;2.50;;
32838;SDS011;19182;41.820;12.808;2024-03-23T05:06:52;3.47;;;2.58;;
32838;SDS011;19182;41.820;12.808;2024-03-23T05:09:19;5.75;;;2.95;;
32838;SDS011;19182;41.820;12.808;2024-03-23T05:11:46;3.88;;;2.95;;
32838;SDS011;19182;41.820;12.808;2024-03-23T05:14:13;4.18;;;2.33;;
32838;SDS011;19182;41.820;12.808;2024-03-23T05:16:39;3.85;;;2.92;;
32838;SDS011;19182;41.820;12.808;2024-03-23T05:19:05;6.18;;;2.50;;
32838;SDS011;19182;41.820;12.808;2024-03-23T05:21:31;4.13;;;2.60;;
32838;SDS011;19182;41.820;12.808;2024-03-23T05:23:56;5.68;;;2.55;;
32838;SDS011;19182;41.820;12.808;2024-03-23T05:26:22;5.88;;;2.88;;
32838;SDS011;19182;41.820;12.808;2024-03-23T05:28:49;7.22;;;3.22;;
32838;SDS011;19182;41.820;12.808;2024-03-23T05:31:27;2.88;;;2.50;;
32838;SDS011;19182;41.820;12.808;2024-03-23T05:33:55;4.90;;;2.58;;
32838;SDS011;19182;41.820;12.808;2024-03-23T05:36:21;2.95;;;2.50;;
32838;SDS011;19182;41.820;12.808;2024-03-23T05:38:52;4.05;;;2.60;;
32838;SDS011;19182;41.820;12.808;2024-03-23T05:41:19;4.95;;;2.92;;
32838;SDS011;19182;41.820;12.808;2024-03-23T05:43:47;4.22;;;2.75;;
32838;SDS011;19182;41.820;12.808;2024-03-23T05:46:13;3.55;;;3.05;;
32838;SDS011;19182;41.820;12.808;2024-03-23T05:48:39;7.28;;;3.05;;
32838;SDS011;19182;41.820;12.808;2024-03-23T05:51:06;4.00;;;2.55;;
32838;SDS011;19182;41.820;12.808;2024-03-23T05:53:34;4.47;;;2.85;;
32838;SDS011;19182;41.820;12.808;2024-03-23T05:56:02;4.35;;;2.70;;
32838;SDS011;19182;41.820;12.808;2024-03-23T05:58:34;5.53;;;2.97;;
32838;SDS011;19182;41.820;12.808;2024-03-23T06:01:01;5.47;;;2.95;;
32838;SDS011;19182;41.820;12.808;2024-03-23T06:03:29;4.75;;;2.60;;
32838;SDS011;19182;41.820;12.808;2024-03-23T06:05:56;5.90;;;3.45;;
32838;SDS011;19182;41.820;12.808;2024-03-23T06:08:22;4.78;;;2.92;;
32838;SDS011;19182;41.820;12.808;2024-03-23T06:10:49;7.72;;;3.63;;
32838;SDS011;19182;41.820;12.808;2024-03-23T06:13:15;12.15;;;3.75;;
32838;SDS011;19182;41.820;12.808;2024-03-23T06:15:42;11.85;;;4.35;;
32838;SDS011;19182;41.820;12.808;2024-03-23T06:18:08;7.43;;;4.43;;
32838;SDS011;19182;41.820;12.808;2024-03-23T06:20:34;10.20;;;4.03;;
32838;SDS011;19182;41.820;12.808;2024-03-23T06:23:01;10.95;;;3.83;;
32838;SDS011;19182;41.820;12.808;2024-03-23T06:25:28;9.98;;;4.63;;
32838;SDS011;19182;41.820;12.808;2024-03-23T06:27:54;7.97;;;5.53;;
32838;SDS011;19182;41.820;12.808;2024-03-23T06:30:23;12.60;;;6.95;;
32838;SDS011;19182;41.820;12.808;2024-03-23T06:32:49;12.38;;;7.38;;
32838;SDS011;19182;41.820;12.808;2024-03-23T06:35:15;13.27;;;7.22;;
32838;SDS011;19182;41.820;12.808;2024-03-23T06:37:41;12.35;;;7.28;;
32838;SDS011;19182;41.820;12.808;2024-03-23T06:40:07;13.75;;;7.30;;
32838;SDS011;19182;41.820;12.808;2024-03-23T06:42:34;16.65;;;7.53;;
32838;SDS011;19182;41.820;12.808;2024-03-23T06:45:01;14.10;;;6.20;;
32838;SDS011;19182;41.820;12.808;2024-03-23T06:47:27;11.98;;;5.63;;
32838;SDS011;19182;41.820;12.808;2024-03-23T06:49:53;15.13;;;7.88;;
32838;SDS011;19182;41.820;12.808;2024-03-23T06:52:19;22.55;;;7.82;;
32838;SDS011;19182;41.820;12.808;2024-03-23T06:54:46;13.73;;;6.68;;
32838;SDS011;19182;41.820;12.808;2024-03-23T06:57:13;9.98;;;6.05;;
32838;SDS011;19182;41.820;12.808;2024-03-23T06:59:39;9.30;;;5.57;;
32838;SDS011;19182;41.820;12.808;2024-03-23T07:02:05;9.30;;;5.70;;
32838;SDS011;19182;41.820;12.808;2024-03-23T07:04:34;12.48;;;6.40;;
32838;SDS011;19182;41.820;12.808;2024-03-23T07:07:01;12.27;;;6.50;;
32838;SDS011;19182;41.820;12.808;2024-03-23T07:09:28;14.07;;;6.35;;
32838;SDS011;19182;41.820;12.808;2024-03-23T07:11:55;14.45;;;7.22;;
32838;SDS011;19182;41.820;12.808;2024-03-23T07:14:23;14.90;;;6.88;;
32838;SDS011;19182;41.820;12.808;2024-03-23T07:16:50;9.85;;;5.97;;
32838;SDS011;19182;41.820;12.808;2024-03-23T07:19:18;17.25;;;8.23;;
32838;SDS011;19182;41.820;12.808;2024-03-23T07:21:45;17.88;;;8.75;;
32838;SDS011;19182;41.820;12.808;2024-03-23T07:24:11;17.17;;;9.18;;
32838;SDS011;19182;41.820;12.808;2024-03-23T07:26:37;21.75;;;12.00;;
32838;SDS011;19182;41.820;12.808;2024-03-23T07:29:03;25.08;;;15.00;;
32838;SDS011;19182;41.820;12.808;2024-03-23T07:31:31;35.33;;;23.00;;
32838;SDS011;19182;41.820;12.808;2024-03-23T07:33:57;45.65;;;29.10;;
32838;SDS011;19182;41.820;12.808;2024-03-23T07:36:23;55.33;;;33.92;;
32838;SDS011;19182;41.820;12.808;2024-03-23T07:38:51;46.90;;;30.77;;
32838;SDS011;19182;41.820;12.808;2024-03-23T07:41:18;40.70;;;27.42;;
32838;SDS011;19182;41.820;12.808;2024-03-23T07:43:47;38.33;;;24.05;;
32838;SDS011;19182;41.820;12.808;2024-03-23T07:46:14;32.58;;;21.20;;
32838;SDS011;19182;41.820;12.808;2024-03-23T07:48:40;30.67;;;19.40;;
32838;SDS011;19182;41.820;12.808;2024-03-23T07:51:11;27.58;;;17.27;;
32838;SDS011;19182;41.820;12.808;2024-03-23T07:53:44;24.98;;;17.08;;
32838;SDS011;19182;41.820;12.808;2024-03-23T07:56:11;28.67;;;19.45;;
32838;SDS011;19182;41.820;12.808;2024-03-23T07:58:37;23.75;;;16.15;;
32838;SDS011;19182;41.820;12.808;2024-03-23T08:01:04;25.17;;;16.55;;
32838;SDS011;19182;41.820;12.808;2024-03-23T08:03:30;22.15;;;13.70;;
32838;SDS011;19182;41.820;12.808;2024-03-23T08:05:58;19.30;;;13.48;;
32838;SDS011;19182;41.820;12.808;2024-03-23T08:08:40;24.27;;;14.80;;
32838;SDS011;19182;41.820;12.808;2024-03-23T08:11:08;21.23;;;13.25;;
32838;SDS011;19182;41.820;12.808;2024-03-23T08:13:34;19.27;;;11.68;;
32838;SDS011;19182;41.820;12.808;2024-03-23T08:16:02;22.50;;;12.70;;
32838;SDS011;19182;41.820;12.808;2024-03-23T08:18:28;43.97;;;26.25;;
32838;SDS011;19182;41.820;12.808;2024-03-23T08:20:58;48.05;;;29.40;;
32838;SDS011;19182;41.820;12.808;2024-03-23T08:23:24;61.30;;;36.58;;
32838;SDS011;19182;41.820;12.808;2024-03-23T08:25:51;55.17;;;34.33;;
32838;SDS011;19182;41.820;12.808;2024-03-23T08:28:22;59.22;;;38.25;;
32838;SDS011;19182;41.820;12.808;2024-03-23T08:30:48;50.90;;;33.15;;
32838;SDS011;19182;41.820;12.808;2024-03-23T08:33:14;39.30;;;24.38;;
32838;SDS011;19182;41.820;12.808;2024-03-23T08:35:43;24.52;;;16.70;;
32838;SDS011;19182;41.820;12.808;2024-03-23T08:38:25;22.13;;;14.73;;
32838;SDS011;19182;41.820;12.808;2024-03-23T08:40:58;17.45;;;10.68;;
32838;SDS011;19182;41.820;12.808;2024-03-23T08:43:25;21.63;;;14.38;;
32838;SDS011;19182;41.820;12.808;2024-03-23T08:45:52;14.90;;;9.98;;
32838;SDS011;19182;41.820;12.808;2024-03-23T08:48:21;17.30;;;8.40;;
32838;SDS011;19182;41.820;12.808;2024-03-23T08:50:47;13.52;;;8.05;;
32838;SDS011;19182;41.820;12.808;2024-03-23T08:53:27;13.48;;;8.15;;
32838;SDS011;19182;41.820;12.808;2024-03-23T08:55:54;16.00;;;10.23;;
32838;SDS011;19182;41.820;12.808;2024-03-23T08:58:20;21.48;;;13.15;;
32838;SDS011;19182;41.820;12.808;2024-03-23T09:00:47;18.55;;;11.80;;
32838;SDS011;19182;41.820;12.808;2024-03-23T09:03:14;17.30;;;10.88;;
32838;SDS011;19182;41.820;12.808;2024-03-23T09:05:43;19.40;;;13.45;;
32838;SDS011;19182;41.820;12.808;2024-03-23T09:08:10;23.13;;;13.85;;
32838;SDS011;19182;41.820;12.808;2024-03-23T09:10:40;21.13;;;14.75;;
32838;SDS011;19182;41.820;12.808;2024-03-23T09:13:08;22.83;;;16.27;;
32838;SDS011;19182;41.820;12.808;2024-03-23T09:15:35;24.20;;;15.82;;
32838;SDS011;19182;41.820;12.808;2024-03-23T09:18:10;21.45;;;14.88;;
32838;SDS011;19182;41.820;12.808;2024-03-23T09:20:36;24.48;;;13.32;;
32838;SDS011;19182;41.820;12.808;2024-03-23T09:23:02;19.70;;;11.82;;
32838;SDS011;19182;41.820;12.808;2024-03-23T09:25:29;21.05;;;12.35;;
32838;SDS011;19182;41.820;12.808;2024-03-23T09:27:55;21.73;;;13.52;;
32838;SDS011;19182;41.820;12.808;2024-03-23T09:30:21;27.83;;;12.93;;
32838;SDS011;19182;41.820;12.808;2024-03-23T09:32:48;21.52;;;14.13;;
32838;SDS011;19182;41.820;12.808;2024-03-23T09:35:15;19.55;;;13.05;;
32838;SDS011;19182;41.820;12.808;2024-03-23T09:37:42;18.38;;;12.52;;
32838;SDS011;19182;41.820;12.808;2024-03-23T09:40:11;17.55;;;12.30;;
32838;SDS011;19182;41.820;12.808;2024-03-23T09:42:37;26.27;;;14.00;;
32838;SDS011;19182;41.820;12.808;2024-03-23T09:45:05;17.80;;;12.80;;
32838;SDS011;19182;41.820;12.808;2024-03-23T09:47:36;18.00;;;12.80;;
32838;SDS011;19182;41.820;12.808;2024-03-23T09:50:02;17.55;;;13.02;;
32838;SDS011;19182;41.820;12.808;2024-03-23T09:52:31;15.95;;;11.55;;
32838;SDS011;19182;41.820;12.808;2024-03-23T09:54:57;14.10;;;9.70;;
32838;SDS011;19182;41.820;12.808;2024-03-23T09:57:22;12.63;;;9.38;;
32838;SDS011;19182;41.820;12.808;2024-03-23T09:59:50;16.30;;;10.80;;
32838;SDS011;19182;41.820;12.808;2024-03-23T10:02:16;14.80;;;11.60;;
32838;SDS011;19182;41.820;12.808;2024-03-23T10:04:45;25.48;;;11.55;;
32838;SDS011;19182;41.820;12.808;2024-03-23T10:07:15;16.48;;;9.85;;
32838;SDS011;19182;41.820;12.808;2024-03-23T10:09:44;20.65;;;11.15;;
32838;SDS011;19182;41.820;12.808;2024-03-23T10:12:10;20.40;;;10.57;;
32838;SDS011;19182;41.820;12.808;2024-03-23T10:14:42;15.77;;;10.70;;
32838;SDS011;19182;41.820;12.808;2024-03-23T10:17:21;11.77;;;8.65;;
32838;SDS011;19182;41.820;12.808;2024-03-23T10:19:53;13.30;;;7.43;;
32838;SDS011;19182;41.820;12.808;2024-03-23T10:22:20;12.13;;;8.13;;
32838;SDS011;19182;41.820;12.808;2024-03-23T10:24:47;15.05;;;6.68;;
32838;SDS011;19182;41.820;12.808;2024-03-23T10:27:17;10.18;;;6.38;;
32838;SDS011;19182;41.820;12.808;2024-03-23T10:29:45;20.38;;;12.27;;
32838;SDS011;19182;41.820;12.808;2024-03-23T10:32:13;16.77;;;9.80;;
32838;SDS011;19182;41.820;12.808;2024-03-23T10:34:44;8.05;;;5.22;;
32838;SDS011;19182;41.820;12.808;2024-03-23T10:37:10;7.07;;;5.05;;
32838;SDS011;19182;41.820;12.808;2024-03-23T10:39:40;6.78;;;5.28;;
32838;SDS011;19182;41.820;12.808;2024-03-23T10:42:31;9.93;;;4.82;;
32838;SDS011;19182;41.820;12.808;2024-03-23T10:44:58;9.32;;;7.82;;
32838;SDS011;19182;41.820;12.808;2024-03-23T10:47:28;14.90;;;9.75;;
32838;SDS011;19182;41.820;12.808;2024-03-23T10:49:54;17.33;;;12.95;;
32838;SDS011;19182;41.820;12.808;2024-03-23T10:52:21;11.15;;;7.57;;
32838;SDS011;19182;41.820;12.808;2024-03-23T10:54:46;11.00;;;6.10;;
32838;SDS011;19182;41.820;12.808;2024-03-23T11:00:04;11.02;;;5.65;;
32838;SDS011;19182;41.820;12.808;2024-03-23T11:02:32;6.68;;;4.68;;
32838;SDS011;19182;41.820;12.808;2024-03-23T11:04:57;8.93;;;4.85;;
32838;SDS011;19182;41.820;12.808;2024-03-23T11:09:50;13.57;;;7.22;;
32838;SDS011;19182;41.820;12.808;2024-03-23T11:14:55;14.38;;;8.23;;
32838;SDS011;19182;41.820;12.808;2024-03-23T11:17:22;12.07;;;7.20;;
32838;SDS011;19182;41.820;12.808;2024-03-23T11:19:59;19.98;;;8.13;;
32838;SDS011;19182;41.820;12.808;2024-03-23T11:22:39;8.85;;;5.32;;
32838;SDS011;19182;41.820;12.808;2024-03-23T11:27:51;12.60;;;7.50;;
32838;SDS011;19182;41.820;12.808;2024-03-23T11:30:25;49.40;;;29.38;;
32838;SDS011;19182;41.820;12.808;2024-03-23T11:32:54;21.33;;;13.43;;
32838;SDS011;19182;41.820;12.808;2024-03-23T11:35:29;8.63;;;6.60;;
32838;SDS011;19182;41.820;12.808;2024-03-23T11:38:05;8.82;;;4.85;;
32838;SDS011;19182;41.820;12.808;2024-03-23T11:40:34;9.70;;;6.10;;
32838;SDS011;19182;41.820;12.808;2024-03-23T11:43:06;13.57;;;6.30;;
32838;SDS011;19182;41.820;12.808;2024-03-23T11:45:34;15.38;;;9.18;;
32838;SDS011;19182;41.820;12.808;2024-03-23T11:50:40;14.30;;;7.57;;
32838;SDS011;19182;41.820;12.808;2024-03-23T11:58:25;6.63;;;4.75;;
32838;SDS011;19182;41.820;12.808;2024-03-23T12:00:52;7.78;;;5.20;;
32838;SDS011;19182;41.820;12.808;2024-03-23T12:03:22;11.85;;;5.85;;
32838;SDS011;19182;41.820;12.808;2024-03-23T12:05:53;7.97;;;4.75;;
32838;SDS011;19182;41.820;12.808;2024-03-23T12:08:24;7.05;;;4.75;;
32838;SDS011;19182;41.820;12.808;2024-03-23T12:11:15;9.15;;;4.93;;
32838;SDS011;19182;41.820;12.808;2024-03-23T12:13:44;10.30;;;6.30;;
32838;SDS011;19182;41.820;12.808;2024-03-23T12:16:18;7.55;;;6.55;;
32838;SDS011;19182;41.820;12.808;2024-03-23T12:18:48;8.50;;;4.63;;
32838;SDS011;19182;41.820;12.808;2024-03-23T12:21:16;2.35;;;1.73;;
32838;SDS011;19182;41.820;12.808;2024-03-23T12:23:42;1.80;;;1.45;;
32838;SDS011;19182;41.820;12.808;2024-03-23T12:26:13;2.55;;;1.48;;
32838;SDS011;19182;41.820;12.808;2024-03-23T12:28:41;2.03;;;1.60;;
32838;SDS011;19182;41.820;12.808;2024-03-23T12:31:08;2.97;;;1.67;;
32838;SDS011;19182;41.820;12.808;2024-03-23T12:33:35;4.25;;;1.58;;
32838;SDS011;19182;41.820;12.808;2024-03-23T12:36:02;5.10;;;1.80;;
32838;SDS011;19182;41.820;12.808;2024-03-23T12:38:28;2.20;;;1.40;;
32838;SDS011;19182;41.820;12.808;2024-03-23T12:40:54;2.03;;;1.48;;
32838;SDS011;19182;41.820;12.808;2024-03-23T12:43:20;3.30;;;1.30;;
32838;SDS011;19182;41.820;12.808;2024-03-23T12:45:48;1.35;;;1.10;;
32838;SDS011;19182;41.820;12.808;2024-03-23T12:48:14;4.47;;;1.40;;
32838;SDS011;19182;41.820;12.808;2024-03-23T12:50:40;1.35;;;0.90;;
32838;SDS011;19182;41.820;12.808;2024-03-23T12:53:07;3.20;;;1.08;;
32838;SDS011;19182;41.820;12.808;2024-03-23T12:55:37;2.10;;;1.20;;
32838;SDS011;19182;41.820;12.808;2024-03-23T12:58:02;5.82;;;1.35;;
32838;SDS011;19182;41.820;12.808;2024-03-23T13:00:29;1.35;;;1.13;;
32838;SDS011;19182;41.820;12.808;2024-03-23T13:02:56;1.27;;;0.80;;
32838;SDS011;19182;41.820;12.808;2024-03-23T13:05:23;1.50;;;0.93;;
32838;SDS011;19182;41.820;12.808;2024-03-23T13:07:52;1.50;;;1.05;;
32838;SDS011;19182;41.820;12.808;2024-03-23T13:10:19;2.17;;;0.90;;
32838;SDS011;19182;41.820;12.808;2024-03-23T13:12:44;1.20;;;0.90;;
32838;SDS011;19182;41.820;12.808;2024-03-23T13:15:11;3.88;;;1.45;;
32838;SDS011;19182;41.820;12.808;2024-03-23T13:17:37;1.55;;;1.00;;
32838;SDS011;19182;41.820;12.808;2024-03-23T13:20:03;2.67;;;1.58;;
32838;SDS011;19182;41.820;12.808;2024-03-23T13:22:29;2.00;;;1.17;;
32838;SDS011;19182;41.820;12.808;2024-03-23T13:24:55;5.50;;;1.60;;
32838;SDS011;19182;41.820;12.808;2024-03-23T13:27:20;2.72;;;1.10;;
32838;SDS011;19182;41.820;12.808;2024-03-23T13:29:47;2.83;;;1.27;;
32838;SDS011;19182;41.820;12.808;2024-03-23T13:32:15;3.13;;;1.17;;
32838;SDS011;19182;41.820;12.808;2024-03-23T13:34:41;3.03;;;1.45;;
32838;SDS011;19182;41.820;12.808;2024-03-23T13:37:06;3.90;;;1.13;;
32838;SDS011;19182;41.820;12.808;2024-03-23T13:39:34;1.45;;;1.10;;
32838;SDS011;19182;41.820;12.808;2024-03-23T13:42:01;3.47;;;1.23;;
32838;SDS011;19182;41.820;12.808;2024-03-23T13:44:28;2.55;;;1.10;;
32838;SDS011;19182;41.820;12.808;2024-03-23T13:46:54;1.83;;;1.20;;
32838;SDS011;19182;41.820;12.808;2024-03-23T13:49:27;2.72;;;1.40;;
32838;SDS011;19182;41.820;12.808;2024-03-23T13:51:53;4.03;;;1.30;;
32838;SDS011;19182;41.820;12.808;2024-03-23T13:54:19;2.95;;;1.20;;
32838;SDS011;19182;41.820;12.808;2024-03-23T13:56:47;2.30;;;1.23;;
32838;SDS011;19182;41.820;12.808;2024-03-23T13:59:17;2.45;;;1.60;;
32838;SDS011;19182;41.820;12.808;2024-03-23T14:01:44;4.72;;;1.30;;
32838;SDS011;19182;41.820;12.808;2024-03-23T14:04:10;3.08;;;1.33;;
32838;SDS011;19182;41.820;12.808;2024-03-23T14:06:37;4.28;;;1.50;;
32838;SDS011;19182;41.820;12.808;2024-03-23T14:09:03;3.20;;;1.40;;
32838;SDS011;19182;41.820;12.808;2024-03-23T14:11:32;4.50;;;1.40;;
32838;SDS011;19182;41.820;12.808;2024-03-23T14:13:58;4.45;;;1.55;;
32838;SDS011;19182;41.820;12.808;2024-03-23T14:16:23;4.20;;;1.30;;
32838;SDS011;19182;41.820;12.808;2024-03-23T14:18:49;2.28;;;1.63;;
32838;SDS011;19182;41.820;12.808;2024-03-23T14:21:17;1.15;;;0.98;;
32838;SDS011;19182;41.820;12.808;2024-03-23T14:23:44;3.25;;;1.30;;
32838;SDS011;19182;41.820;12.808;2024-03-23T14:26:10;2.38;;;1.10;;
32838;SDS011;19182;41.820;12.808;2024-03-23T14:28:38;1.58;;;1.20;;
32838;SDS011;19182;41.820;12.808;2024-03-23T14:31:06;4.05;;;1.58;;
32838;SDS011;19182;41.820;12.808;2024-03-23T14:33:36;2.60;;;1.70;;
32838;SDS011;19182;41.820;12.808;2024-03-23T14:36:02;5.43;;;2.30;;
32838;SDS011;19182;41.820;12.808;2024-03-23T14:38:28;2.42;;;1.60;;
32838;SDS011;19182;41.820;12.808;2024-03-23T14:40:57;3.20;;;1.30;;
32838;SDS011;19182;41.820;12.808;2024-03-23T14:43:27;2.85;;;1.40;;
32838;SDS011;19182;41.820;12.808;2024-03-23T14:46:06;4.97;;;1.50;;
32838;SDS011;19182;41.820;12.808;2024-03-23T14:48:32;4.13;;;1.70;;
32838;SDS011;19182;41.820;12.808;2024-03-23T14:51:03;4.15;;;2.00;;
32838;SDS011;19182;41.820;12.808;2024-03-23T14:53:33;2.50;;;1.60;;
32838;SDS011;19182;41.820;12.808;2024-03-23T14:56:04;6.80;;;1.70;;
32838;SDS011;19182;41.820;12.808;2024-03-23T14:58:30;2.67;;;1.52;;
32838;SDS011;19182;41.820;12.808;2024-03-23T15:01:03;4.80;;;1.52;;
32838;SDS011;19182;41.820;12.808;2024-03-23T15:03:30;5.95;;;1.70;;
32838;SDS011;19182;41.820;12.808;2024-03-23T15:05:56;2.95;;;1.90;;
32838;SDS011;19182;41.820;12.808;2024-03-23T15:08:23;2.83;;;1.60;;
32838;SDS011;19182;41.820;12.808;2024-03-23T15:10:49;6.30;;;1.50;;
32838;SDS011;19182;41.820;12.808;2024-03-23T15:13:16;4.63;;;1.88;;
32838;SDS011;19182;41.820;12.808;2024-03-23T15:15:42;1.75;;;1.50;;
32838;SDS011;19182;41.820;12.808;2024-03-23T15:18:14;3.00;;;1.58;;
32838;SDS011;19182;41.820;12.808;2024-03-23T15:20:41;2.58;;;1.58;;
32838;SDS011;19182;41.820;12.808;2024-03-23T15:23:19;2.78;;;1.30;;
32838;SDS011;19182;41.820;12.808;2024-03-23T15:25:46;1.48;;;1.15;;
32838;SDS011;19182;41.820;12.808;2024-03-23T15:28:26;2.95;;;1.40;;
32838;SDS011;19182;41.820;12.808;2024-03-23T15:31:25;5.78;;;1.73;;
32838;SDS011;19182;41.820;12.808;2024-03-23T15:33:50;4.45;;;1.73;;
32838;SDS011;19182;41.820;12.808;2024-03-23T15:36:19;5.85;;;2.25;;
32838;SDS011;19182;41.820;12.808;2024-03-23T15:38:45;4.65;;;2.30;;
32838;SDS011;19182;41.820;12.808;2024-03-23T15:41:16;3.88;;;1.67;;